OKEO2: Sand Creek near Okesa

Data processed at Fri Mar 09 2018 23:14


All information presented herein is the property of the government of the United States of America and may be revised or deleted at any time without prior notice.
Dissemination of this information without the expressed written consent of the Public Affairs Office, Tulsa District U.S. Army Corps of Engineers is strictly prohibited.
These data are gathered electronically and, as presented, have not undergone any form of quality control. These data are not guaranteed to be valid or correct.
Go to home page.
Go to station list.

Downstream station:


Previous Day
Next Day
Current Day
    
SHEF ID:       OKEO2     Sand Creek Below Little Rock Cre
STATION TYPE:  

               PRECIP     STAGE  RIV-FLOW  BAT-LOAD
                   in        ft       cfs      volt
              Ccp-Rev   Ccp-Rev   Ccp-Rev   Ccp-Rev
(US/Central)
03/07 00:00      0.00      7.41       174     12.65
03/07 01:00      0.00      7.39       171     12.65
03/07 02:00      0.00      7.41       174     12.65
03/07 03:00      0.00      7.41       174     12.65
03/07 04:00      0.00      7.40       173     12.57
03/07 05:00      0.00      7.41       174     12.57
03/07 06:00      0.00      7.41       174     12.57
03/07 07:00      0.00      7.40       173     12.49
03/07 08:00      0.00      7.38       169     12.49
03/07 09:00      0.00      7.38       169     12.65
03/07 10:00      0.00      7.40       173     13.68
03/07 11:00      0.00      7.39       171     13.84
03/07 12:00      0.00      7.39       171     13.84
03/07 13:00      0.00      7.38       169     13.84
03/07 14:00      0.00      7.39       171     14.00
03/07 15:00      0.00      7.38       169     13.92
03/07 16:00      0.00      7.38       169     13.53
03/07 17:00      0.00      7.37       167     13.29
03/07 18:00      0.00      7.38       169     13.37
03/07 19:00      0.00      7.40       173     13.05
03/07 20:00      0.00      7.39       171     12.81
03/07 21:00      0.00      7.40       173     12.73
03/07 22:00      0.00      7.38       169     12.73
03/07 23:00      0.00      7.38       169     12.65